createdAt,value
2019-03-30T00:00:28.059Z,21.88
2019-03-30T00:01:28.066Z,21.79
2019-03-30T00:02:28.071Z,21.78
2019-03-30T00:03:28.077Z,21.79
2019-03-30T00:04:28.082Z,21.88
2019-03-30T00:05:28.088Z,21.90
2019-03-30T00:06:28.093Z,21.79
2019-03-30T00:07:28.099Z,21.82
2019-03-30T00:08:28.104Z,21.82
2019-03-30T00:09:28.109Z,21.79
2019-03-30T00:10:28.117Z,21.81
2019-03-30T00:11:28.130Z,21.81
2019-03-30T00:12:28.129Z,21.85
2019-03-30T00:13:28.132Z,21.88
2019-03-30T00:14:28.141Z,21.88
2019-03-30T00:15:28.144Z,21.88
2019-03-30T00:16:28.150Z,21.81
2019-03-30T00:17:28.205Z,21.82
2019-03-30T00:18:28.159Z,21.81
2019-03-30T00:19:34.780Z,21.82
2019-03-30T00:20:28.170Z,21.79
2019-03-30T00:21:28.177Z,21.79
2019-03-30T00:22:28.183Z,21.81
2019-03-30T00:23:28.191Z,21.94
2019-03-30T00:24:28.202Z,21.88
2019-03-30T00:25:28.198Z,21.79
2019-03-30T00:26:28.206Z,21.88
2019-03-30T00:27:28.212Z,21.88
2019-03-30T00:28:28.214Z,21.82
2019-03-30T00:29:28.222Z,21.78
2019-03-30T00:30:28.228Z,21.81
2019-03-30T00:31:28.235Z,21.82
2019-03-30T00:32:28.239Z,21.81
2019-03-30T00:33:28.244Z,21.83
2019-03-30T00:34:28.252Z,21.79
2019-03-30T00:35:28.259Z,21.79
2019-03-30T00:36:28.264Z,21.79
2019-03-30T00:37:28.266Z,21.83
2019-03-30T00:38:28.272Z,21.81
2019-03-30T00:39:28.280Z,21.82
2019-03-30T00:40:28.287Z,21.82
2019-03-30T00:41:28.290Z,21.85
2019-03-30T00:42:28.294Z,21.81
2019-03-30T00:43:28.303Z,21.83
2019-03-30T00:44:28.307Z,21.83
2019-03-30T00:45:28.313Z,21.79
2019-03-30T00:46:28.319Z,21.79
2019-03-30T00:47:28.322Z,21.83
2019-03-30T00:48:28.329Z,21.82
2019-03-30T00:49:28.334Z,21.85
2019-03-30T00:50:28.340Z,21.83
2019-03-30T00:51:28.350Z,21.82
2019-03-30T00:52:28.354Z,21.81
2019-03-30T00:53:28.357Z,21.81
2019-03-30T00:54:28.362Z,21.83
2019-03-30T00:55:28.369Z,21.83
2019-03-30T00:56:28.373Z,21.85
2019-03-30T00:57:28.378Z,21.83
2019-03-30T00:58:28.453Z,21.85
2019-03-30T00:59:28.403Z,21.75
2019-03-30T01:00:28.395Z,21.74
2019-03-30T01:01:28.453Z,21.81
2019-03-30T01:02:28.410Z,21.82
2019-03-30T01:03:28.413Z,21.82
2019-03-30T01:04:28.420Z,21.81
2019-03-30T01:05:28.423Z,21.76
2019-03-30T01:06:28.432Z,21.88
2019-03-30T01:07:28.434Z,21.85
2019-03-30T01:08:28.442Z,21.79
2019-03-30T01:09:28.448Z,21.81
2019-03-30T01:10:28.452Z,21.79
2019-03-30T01:11:28.457Z,21.76
2019-03-30T01:12:28.464Z,21.74
2019-03-30T01:13:28.527Z,21.81
2019-03-30T01:14:28.475Z,21.83
2019-03-30T01:15:28.481Z,21.74
2019-03-30T01:16:28.485Z,21.81
2019-03-30T01:17:28.491Z,21.79
2019-03-30T01:18:28.523Z,21.74
2019-03-30T01:19:28.504Z,21.79
2019-03-30T01:20:28.506Z,21.81
2019-03-30T01:21:28.514Z,21.82
2019-03-30T01:22:28.520Z,21.76
2019-03-30T01:23:28.528Z,21.82
2019-03-30T01:24:28.530Z,21.78
2019-03-30T01:25:28.537Z,21.79
2019-03-30T01:26:28.543Z,21.79
2019-03-30T01:27:28.548Z,21.79
2019-03-30T01:28:28.553Z,21.79
2019-03-30T01:29:28.562Z,21.83
2019-03-30T01:30:28.565Z,21.76
2019-03-30T01:31:28.571Z,21.79
2019-03-30T01:32:28.575Z,21.78
2019-03-30T01:33:28.581Z,21.81
2019-03-30T01:34:28.593Z,21.79
2019-03-30T01:35:28.721Z,21.76
2019-03-30T01:36:28.595Z,21.83
2019-03-30T01:37:28.601Z,21.78
2019-03-30T01:38:28.610Z,21.76
2019-03-30T01:39:28.614Z,21.82
2019-03-30T01:40:28.741Z,21.81
2019-03-30T01:41:28.640Z,21.79
2019-03-30T01:42:28.630Z,21.76
2019-03-30T01:43:28.637Z,21.75
2019-03-30T01:44:28.644Z,21.76
2019-03-30T01:45:28.648Z,21.79
2019-03-30T01:46:28.656Z,21.75
2019-03-30T01:47:28.660Z,21.78
2019-03-30T01:48:28.662Z,21.82
2019-03-30T01:49:28.672Z,21.78
2019-03-30T01:50:28.676Z,21.76
2019-03-30T01:51:28.681Z,21.74
2019-03-30T01:52:28.690Z,21.76
2019-03-30T01:53:28.692Z,21.76
2019-03-30T01:54:28.698Z,21.75
2019-03-30T01:55:28.704Z,21.81
2019-03-30T01:56:28.709Z,21.69
2019-03-30T01:57:28.714Z,21.71
2019-03-30T01:58:28.720Z,21.75
2019-03-30T01:59:28.726Z,21.79
2019-03-30T02:00:28.734Z,21.83
2019-03-30T02:01:28.737Z,21.81
2019-03-30T02:02:28.743Z,21.76
2019-03-30T02:03:28.748Z,21.82
2019-03-30T02:04:28.753Z,21.72
2019-03-30T02:05:28.759Z,21.82
2019-03-30T02:06:28.804Z,21.76
2019-03-30T02:07:28.771Z,21.79
2019-03-30T02:08:28.775Z,21.76
2019-03-30T02:09:28.787Z,21.83
2019-03-30T02:10:28.788Z,21.81
2019-03-30T02:11:28.820Z,21.71
2019-03-30T02:12:28.801Z,21.75
2019-03-30T02:13:28.923Z,21.78
2019-03-30T02:14:28.811Z,21.79
2019-03-30T02:15:28.815Z,21.76
2019-03-30T02:16:28.821Z,21.71
2019-03-30T02:17:28.825Z,21.75
2019-03-30T02:18:28.832Z,21.74
2019-03-30T02:19:28.839Z,21.71
2019-03-30T02:20:31.024Z,21.79
2019-03-30T02:21:28.852Z,21.72
2019-03-30T02:22:28.854Z,21.76
2019-03-30T02:23:28.860Z,21.78
2019-03-30T02:24:28.865Z,21.72
2019-03-30T02:25:28.869Z,21.71
2019-03-30T02:26:28.877Z,21.76
2019-03-30T02:27:28.883Z,21.78
2019-03-30T02:28:28.886Z,21.75
2019-03-30T02:29:28.893Z,21.72
2019-03-30T02:30:28.900Z,21.75
2019-03-30T02:31:28.906Z,21.75
2019-03-30T02:32:28.909Z,21.79
2019-03-30T02:33:28.917Z,21.72
2019-03-30T02:34:28.923Z,21.76
2019-03-30T02:35:28.928Z,21.81
2019-03-30T02:36:28.939Z,21.79
2019-03-30T02:37:28.940Z,21.74
2019-03-30T02:38:28.943Z,21.72
2019-03-30T02:39:28.950Z,21.72
2019-03-30T02:40:28.954Z,21.71
2019-03-30T02:41:28.967Z,21.76
2019-03-30T02:42:28.966Z,21.71
2019-03-30T02:43:28.971Z,21.75
2019-03-30T02:44:28.976Z,21.74
2019-03-30T02:45:28.981Z,21.74
2019-03-30T02:46:29.004Z,21.72
2019-03-30T02:47:28.996Z,21.78
2019-03-30T02:48:28.999Z,21.71
2019-03-30T02:49:29.003Z,21.75
2019-03-30T02:50:29.011Z,21.78
2019-03-30T02:51:29.087Z,21.75
2019-03-30T02:52:29.021Z,21.69
2019-03-30T02:53:29.033Z,21.79
2019-03-30T02:54:29.033Z,21.78
2019-03-30T02:55:29.066Z,21.69
2019-03-30T02:56:29.046Z,21.71
2019-03-30T02:57:29.048Z,21.81
2019-03-30T02:58:29.056Z,21.67
2019-03-30T02:59:29.061Z,21.74
2019-03-30T03:00:29.066Z,21.69
2019-03-30T03:01:29.072Z,21.75
2019-03-30T03:02:29.078Z,21.76
2019-03-30T03:03:29.084Z,21.72
2019-03-30T03:04:29.106Z,21.75
2019-03-30T03:05:29.094Z,21.71
2019-03-30T03:06:29.113Z,21.67
2019-03-30T03:07:29.106Z,21.63
2019-03-30T03:08:29.119Z,21.66
2019-03-30T03:09:29.117Z,21.76
2019-03-30T03:10:29.124Z,21.74
2019-03-30T03:11:29.128Z,21.71
2019-03-30T03:12:29.134Z,21.72
2019-03-30T03:13:29.139Z,21.71
2019-03-30T03:14:29.144Z,21.74
2019-03-30T03:15:29.150Z,21.75
2019-03-30T03:16:29.156Z,21.66
2019-03-30T03:17:29.160Z,21.66
2019-03-30T03:18:29.204Z,21.69
2019-03-30T03:19:29.176Z,21.69
2019-03-30T03:20:29.177Z,21.72
2019-03-30T03:21:29.182Z,21.69
2019-03-30T03:22:29.188Z,21.71
2019-03-30T03:23:29.194Z,21.78
2019-03-30T03:24:29.199Z,21.69
2019-03-30T03:25:29.206Z,21.71
2019-03-30T03:26:29.211Z,21.74
2019-03-30T03:27:29.217Z,21.69
2019-03-30T03:28:29.221Z,21.72
2019-03-30T03:29:29.230Z,21.72
2019-03-30T03:30:29.238Z,21.71
2019-03-30T03:31:29.247Z,21.74
2019-03-30T03:32:29.243Z,21.72
2019-03-30T03:33:29.250Z,21.71
2019-03-30T03:34:29.257Z,21.71
2019-03-30T03:35:29.262Z,21.71
2019-03-30T03:36:29.292Z,21.74
2019-03-30T03:37:43.444Z,21.72
2019-03-30T03:38:29.277Z,21.72
2019-03-30T03:39:29.283Z,21.69
2019-03-30T03:40:29.304Z,21.69
2019-03-30T03:41:29.294Z,21.75
2019-03-30T03:42:29.302Z,21.71
2019-03-30T03:43:29.337Z,21.75
2019-03-30T03:44:29.312Z,21.69
2019-03-30T03:45:29.317Z,21.82
2019-03-30T03:46:29.327Z,21.74
2019-03-30T03:47:29.328Z,21.64
2019-03-30T03:48:29.334Z,21.75
2019-03-30T03:49:29.338Z,21.72
2019-03-30T03:50:29.345Z,21.72
2019-03-30T03:51:29.355Z,21.74
2019-03-30T03:52:29.354Z,21.72
2019-03-30T03:53:29.361Z,21.82
2019-03-30T03:54:29.366Z,21.74
2019-03-30T03:55:29.373Z,21.69
2019-03-30T03:56:29.377Z,21.72
2019-03-30T03:57:29.599Z,21.66
2019-03-30T03:58:29.438Z,21.72
2019-03-30T03:59:29.401Z,21.72
2019-03-30T04:00:29.399Z,21.71
2019-03-30T04:01:29.405Z,21.67
2019-03-30T04:02:29.482Z,21.69
2019-03-30T04:03:29.419Z,21.69
2019-03-30T04:04:29.496Z,21.69
2019-03-30T04:05:29.429Z,21.71
2019-03-30T04:06:29.435Z,21.69
2019-03-30T04:07:29.450Z,21.69
2019-03-30T04:08:29.444Z,21.69
2019-03-30T04:09:29.449Z,21.79
2019-03-30T04:10:29.455Z,21.72
2019-03-30T04:11:29.462Z,21.75
2019-03-30T04:12:29.466Z,21.76
2019-03-30T04:13:29.471Z,21.71
2019-03-30T04:14:29.479Z,21.74
2019-03-30T04:15:29.485Z,21.75
2019-03-30T04:16:29.538Z,21.81
2019-03-30T04:17:29.504Z,21.76
2019-03-30T04:18:29.646Z,21.76
2019-03-30T04:19:29.508Z,21.76
2019-03-30T04:20:29.509Z,21.81
2019-03-30T04:21:42.806Z,21.71
2019-03-30T04:22:29.521Z,21.76
2019-03-30T04:23:29.916Z,21.69
2019-03-30T04:24:29.537Z,21.67
2019-03-30T04:25:29.538Z,21.74
2019-03-30T04:26:29.549Z,21.71
2019-03-30T04:27:29.549Z,21.75
2019-03-30T04:28:29.554Z,21.69
2019-03-30T04:29:29.558Z,21.66
2019-03-30T04:30:29.566Z,21.69
2019-03-30T04:31:29.572Z,21.69
2019-03-30T04:32:29.577Z,21.76
2019-03-30T04:33:29.582Z,21.75
2019-03-30T04:34:29.588Z,21.71
2019-03-30T04:35:29.595Z,21.69
2019-03-30T04:36:29.598Z,21.69
2019-03-30T04:37:29.609Z,21.67
2019-03-30T04:38:29.613Z,21.67
2019-03-30T04:39:29.614Z,21.74
2019-03-30T04:40:29.621Z,21.69
2019-03-30T04:41:29.632Z,21.67
2019-03-30T04:42:29.632Z,21.67
2019-03-30T04:43:29.640Z,21.71
2019-03-30T04:44:29.643Z,21.64
2019-03-30T04:45:29.648Z,21.66
2019-03-30T04:46:29.653Z,21.71
2019-03-30T04:47:29.660Z,21.79
2019-03-30T04:48:29.802Z,21.71
2019-03-30T04:49:29.670Z,21.69
2019-03-30T04:50:29.676Z,21.72
2019-03-30T04:51:29.682Z,21.69
2019-03-30T04:52:29.686Z,21.72
2019-03-30T04:53:29.692Z,21.71
2019-03-30T04:54:29.697Z,21.74
2019-03-30T04:55:29.703Z,21.74
2019-03-30T04:56:29.708Z,21.72
2019-03-30T04:57:29.718Z,21.69
2019-03-30T04:58:29.720Z,21.67
2019-03-30T04:59:29.724Z,21.61
2019-03-30T05:00:29.732Z,21.69
2019-03-30T05:01:29.737Z,21.71
2019-03-30T05:02:29.742Z,21.69
2019-03-30T05:03:29.750Z,21.64
2019-03-30T05:04:29.754Z,21.69
2019-03-30T05:05:29.758Z,21.66
2019-03-30T05:06:29.765Z,21.74
2019-03-30T05:07:29.770Z,21.76
2019-03-30T05:08:29.779Z,21.75
2019-03-30T05:09:29.781Z,21.74
2019-03-30T05:10:29.787Z,21.64
2019-03-30T05:11:29.791Z,21.71
2019-03-30T05:12:29.798Z,21.76
2019-03-30T05:13:29.803Z,21.78
2019-03-30T05:14:29.808Z,21.79
2019-03-30T05:15:29.812Z,21.75
2019-03-30T05:16:29.818Z,21.76
2019-03-30T05:17:45.918Z,21.74
2019-03-30T05:18:29.829Z,21.75
2019-03-30T05:19:29.835Z,21.81
2019-03-30T05:20:29.840Z,21.75
2019-03-30T05:21:29.847Z,21.82
2019-03-30T05:22:29.908Z,21.74
2019-03-30T05:23:29.915Z,21.78
2019-03-30T05:24:29.864Z,21.79
2019-03-30T05:25:29.873Z,21.79
2019-03-30T05:26:29.876Z,21.75
2019-03-30T05:27:29.880Z,21.78
2019-03-30T05:28:29.884Z,21.75
2019-03-30T05:29:29.891Z,21.74
2019-03-30T05:30:29.899Z,21.76
2019-03-30T05:31:29.903Z,21.78
2019-03-30T05:32:29.909Z,21.78
2019-03-30T05:33:29.986Z,21.76
2019-03-30T05:34:29.918Z,21.76
2019-03-30T05:35:29.923Z,21.81
2019-03-30T05:36:29.928Z,21.79
2019-03-30T05:37:29.935Z,21.78
2019-03-30T05:38:29.941Z,21.83
2019-03-30T05:39:29.946Z,21.81
2019-03-30T05:40:29.972Z,21.75
2019-03-30T05:41:29.961Z,21.82
2019-03-30T05:42:29.965Z,21.83
2019-03-30T05:43:29.968Z,21.82
2019-03-30T05:44:29.973Z,21.79
2019-03-30T05:45:29.984Z,21.78
2019-03-30T05:46:29.986Z,21.76
2019-03-30T05:47:29.992Z,21.75
2019-03-30T05:48:29.994Z,21.76
2019-03-30T05:49:30.001Z,21.76
2019-03-30T05:50:30.008Z,21.74
2019-03-30T05:51:30.012Z,21.75
2019-03-30T05:52:30.016Z,21.75
2019-03-30T05:53:30.027Z,21.75
2019-03-30T05:54:30.031Z,21.83
2019-03-30T05:55:30.036Z,21.90
2019-03-30T05:56:30.039Z,21.81
2019-03-30T05:57:30.046Z,21.78
2019-03-30T05:58:30.051Z,21.79
2019-03-30T05:59:30.089Z,21.79
2019-03-30T06:00:30.063Z,21.79
2019-03-30T06:01:30.066Z,21.79
2019-03-30T06:02:30.078Z,21.81
2019-03-30T06:03:30.078Z,21.74
2019-03-30T06:04:30.083Z,21.83
2019-03-30T06:05:30.161Z,21.76
2019-03-30T06:06:30.103Z,21.83
2019-03-30T06:07:30.135Z,21.79
2019-03-30T06:08:30.105Z,21.82
2019-03-30T06:09:30.111Z,21.81
2019-03-30T06:10:30.117Z,21.82
2019-03-30T06:11:30.129Z,21.79
2019-03-30T06:12:30.129Z,21.82
2019-03-30T06:13:30.134Z,21.81
2019-03-30T06:14:30.139Z,21.85
2019-03-30T06:15:30.145Z,21.91
2019-03-30T06:16:30.149Z,21.92
2019-03-30T06:17:30.154Z,21.90
2019-03-30T06:18:30.160Z,21.90
2019-03-30T06:19:30.167Z,21.90
2019-03-30T06:20:30.174Z,21.95
2019-03-30T06:21:30.178Z,21.95
2019-03-30T06:22:40.116Z,21.78
2019-03-30T06:23:30.190Z,21.95
2019-03-30T06:24:30.194Z,21.98
2019-03-30T06:25:30.201Z,21.95
2019-03-30T06:26:30.206Z,22.09
2019-03-30T06:27:30.211Z,22.07
2019-03-30T06:28:30.217Z,22.06
2019-03-30T06:29:30.221Z,22.06
2019-03-30T06:30:30.227Z,22.07
2019-03-30T06:31:30.233Z,22.12
2019-03-30T06:32:30.236Z,22.06
2019-03-30T06:33:30.243Z,22.07
2019-03-30T06:34:30.250Z,22.09
2019-03-30T06:35:30.257Z,22.10
2019-03-30T06:36:30.261Z,22.10
2019-03-30T06:37:30.265Z,22.04
2019-03-30T06:38:30.272Z,22.01
2019-03-30T06:39:30.277Z,22.01
2019-03-30T06:40:30.282Z,22.12
2019-03-30T06:41:30.289Z,22.10
2019-03-30T06:42:30.292Z,22.14
2019-03-30T06:43:30.299Z,22.09
2019-03-30T06:44:30.303Z,22.07
2019-03-30T06:45:30.311Z,22.10
2019-03-30T06:46:30.319Z,22.12
2019-03-30T06:47:30.322Z,22.13
2019-03-30T06:48:30.325Z,22.09
2019-03-30T06:49:30.332Z,22.07
2019-03-30T06:50:30.338Z,22.10
2019-03-30T06:51:30.344Z,22.10
2019-03-30T06:52:30.348Z,22.14
2019-03-30T06:53:30.355Z,22.12
2019-03-30T06:54:30.361Z,22.07
2019-03-30T06:55:30.367Z,22.16
2019-03-30T06:56:30.372Z,22.17
2019-03-30T06:57:30.378Z,22.12
2019-03-30T06:58:30.779Z,22.12
2019-03-30T06:59:30.388Z,22.16
2019-03-30T07:00:30.392Z,22.10
2019-03-30T07:01:30.481Z,22.12
2019-03-30T07:02:30.406Z,22.07
2019-03-30T07:03:30.411Z,22.14
2019-03-30T07:04:30.417Z,22.17
2019-03-30T07:05:30.421Z,22.12
2019-03-30T07:06:30.428Z,22.25
2019-03-30T07:07:30.469Z,22.16
2019-03-30T07:08:30.438Z,22.12
2019-03-30T07:09:30.446Z,22.14
2019-03-30T07:10:30.449Z,22.14
2019-03-30T07:11:30.460Z,22.13
2019-03-30T07:12:30.461Z,22.20
2019-03-30T07:13:30.465Z,22.17
2019-03-30T07:14:30.476Z,22.14
2019-03-30T07:15:30.478Z,22.17
2019-03-30T07:16:30.483Z,22.16
2019-03-30T07:17:30.491Z,22.25
2019-03-30T07:18:30.496Z,22.14
2019-03-30T07:19:30.501Z,22.20
2019-03-30T07:20:30.504Z,22.14
2019-03-30T07:21:30.512Z,22.20
2019-03-30T07:22:30.516Z,22.13
2019-03-30T07:23:30.524Z,22.28
2019-03-30T07:24:30.528Z,22.27
2019-03-30T07:25:30.536Z,22.16
2019-03-30T07:26:30.540Z,22.20
2019-03-30T07:27:30.545Z,22.17
2019-03-30T07:28:30.552Z,22.19
2019-03-30T07:29:30.559Z,22.17
2019-03-30T07:30:30.563Z,22.13
2019-03-30T07:31:30.568Z,22.17
2019-03-30T07:32:30.573Z,22.20
2019-03-30T07:33:30.579Z,22.17
2019-03-30T07:34:30.584Z,22.12
2019-03-30T07:35:30.590Z,22.17
2019-03-30T07:36:30.594Z,22.19
2019-03-30T07:37:30.602Z,22.13
2019-03-30T07:38:30.607Z,22.23
2019-03-30T07:39:30.772Z,22.23
2019-03-30T07:40:33.757Z,22.20
2019-03-30T07:41:30.625Z,22.22
2019-03-30T07:42:30.633Z,22.25
2019-03-30T07:43:30.642Z,22.25
2019-03-30T07:44:30.645Z,22.22
2019-03-30T07:45:30.648Z,22.25
2019-03-30T07:46:30.660Z,22.25
2019-03-30T07:47:30.659Z,22.25
2019-03-30T07:48:30.664Z,22.27
2019-03-30T07:49:30.670Z,22.28
2019-03-30T07:50:30.677Z,22.25
2019-03-30T07:51:33.360Z,22.27
2019-03-30T07:52:30.696Z,22.28
2019-03-30T07:53:43.585Z,22.37
2019-03-30T07:54:30.697Z,22.39
2019-03-30T07:55:30.708Z,22.41
2019-03-30T07:56:30.710Z,22.28
2019-03-30T07:57:30.720Z,22.31
2019-03-30T07:58:30.723Z,22.34
2019-03-30T07:59:30.730Z,22.35
2019-03-30T08:00:31.167Z,22.35
2019-03-30T08:01:30.740Z,22.38
2019-03-30T08:02:30.744Z,22.38
2019-03-30T08:03:30.751Z,22.37
2019-03-30T08:04:30.755Z,22.37
2019-03-30T08:05:30.763Z,22.35
2019-03-30T08:06:30.768Z,22.38
2019-03-30T08:07:30.773Z,22.39
2019-03-30T08:08:30.777Z,22.34
2019-03-30T08:09:30.783Z,22.38
2019-03-30T08:10:30.790Z,22.35
2019-03-30T08:11:30.802Z,22.38
2019-03-30T08:12:30.800Z,22.35
2019-03-30T08:13:30.808Z,22.41
2019-03-30T08:14:30.817Z,22.38
2019-03-30T08:15:30.818Z,22.38
2019-03-30T08:16:30.824Z,22.37
2019-03-30T08:17:30.829Z,22.41
2019-03-30T08:18:30.836Z,22.41
2019-03-30T08:19:30.842Z,22.44
2019-03-30T08:20:30.848Z,22.37
2019-03-30T08:21:30.852Z,22.43
2019-03-30T08:22:30.859Z,22.47
2019-03-30T08:23:40.282Z,22.39
2019-03-30T08:24:30.870Z,22.43
2019-03-30T08:25:30.884Z,22.38
2019-03-30T08:26:30.883Z,22.44
2019-03-30T08:27:30.887Z,22.35
2019-03-30T08:28:30.894Z,22.32
2019-03-30T08:29:30.899Z,22.44
2019-03-30T08:30:30.904Z,22.43
2019-03-30T08:31:30.915Z,22.43
2019-03-30T08:32:31.127Z,22.39
2019-03-30T08:33:30.923Z,22.54
2019-03-30T08:34:30.929Z,22.52
2019-03-30T08:35:30.934Z,22.54
2019-03-30T08:36:30.940Z,22.56
2019-03-30T08:37:30.946Z,22.53
2019-03-30T08:38:30.951Z,22.52
2019-03-30T08:39:30.958Z,22.50
2019-03-30T08:40:30.964Z,22.52
2019-03-30T08:41:30.967Z,22.52
2019-03-30T08:42:30.974Z,22.54
2019-03-30T08:43:30.983Z,22.52
2019-03-30T08:44:30.984Z,22.53
2019-03-30T08:45:30.990Z,22.50
2019-03-30T08:46:30.998Z,22.54
2019-03-30T08:47:31.042Z,22.67
2019-03-30T08:48:31.009Z,22.50
2019-03-30T08:49:31.015Z,22.47
2019-03-30T08:50:31.020Z,22.59
2019-03-30T08:51:31.028Z,22.52
2019-03-30T08:52:31.033Z,22.56
2019-03-30T08:53:31.038Z,22.60
2019-03-30T08:54:31.046Z,22.53
2019-03-30T08:55:31.051Z,22.57
2019-03-30T08:56:31.055Z,22.60
2019-03-30T08:57:31.061Z,22.57
2019-03-30T08:58:31.068Z,22.56
2019-03-30T08:59:31.075Z,22.69
2019-03-30T09:00:31.078Z,22.60
2019-03-30T09:01:31.085Z,22.64
2019-03-30T09:02:31.092Z,22.56
2019-03-30T09:03:33.970Z,22.62
2019-03-30T09:04:31.101Z,22.59
2019-03-30T09:05:31.109Z,22.67
2019-03-30T09:06:31.117Z,22.67
2019-03-30T09:07:31.128Z,22.68
2019-03-30T09:08:31.127Z,22.67
2019-03-30T09:09:31.137Z,22.69
2019-03-30T09:10:31.141Z,22.68
2019-03-30T09:11:31.144Z,22.68
2019-03-30T09:12:31.150Z,22.71
2019-03-30T09:13:31.158Z,22.69
2019-03-30T09:14:31.164Z,22.67
2019-03-30T09:15:31.169Z,22.60
2019-03-30T09:16:31.173Z,22.72
2019-03-30T09:17:31.179Z,22.71
2019-03-30T09:18:31.187Z,22.75
2019-03-30T09:19:31.191Z,22.72
2019-03-30T09:20:31.196Z,22.69
2019-03-30T09:21:31.203Z,22.64
2019-03-30T09:22:31.210Z,22.71
2019-03-30T09:23:31.215Z,22.72
2019-03-30T09:24:31.220Z,22.78
2019-03-30T09:25:31.227Z,22.80
2019-03-30T09:26:31.235Z,22.77
2019-03-30T09:27:31.238Z,22.72
2019-03-30T09:28:31.244Z,22.75
2019-03-30T09:29:31.250Z,22.83
2019-03-30T09:30:31.262Z,22.77
2019-03-30T09:31:31.262Z,22.77
2019-03-30T09:32:31.268Z,22.78
2019-03-30T09:33:31.274Z,22.72
2019-03-30T09:34:31.282Z,22.82
2019-03-30T09:35:31.285Z,22.67
2019-03-30T09:36:31.379Z,22.77
2019-03-30T09:37:31.297Z,22.71
2019-03-30T09:38:31.311Z,22.69
2019-03-30T09:39:31.309Z,22.68
2019-03-30T09:40:31.315Z,22.84
2019-03-30T09:41:31.320Z,22.83
2019-03-30T09:42:31.327Z,22.82
2019-03-30T09:43:31.333Z,22.78
2019-03-30T09:44:31.338Z,22.75
2019-03-30T09:45:31.353Z,22.75
2019-03-30T09:46:31.354Z,22.71
2019-03-30T09:47:31.361Z,22.65
2019-03-30T09:48:31.365Z,22.67
2019-03-30T09:49:31.369Z,22.67
2019-03-30T09:50:31.376Z,22.67
2019-03-30T09:51:31.381Z,22.65
2019-03-30T09:52:31.387Z,22.69
2019-03-30T09:53:31.392Z,22.65
2019-03-30T09:54:31.399Z,22.69
2019-03-30T09:55:31.407Z,22.68
2019-03-30T09:56:31.410Z,22.72
2019-03-30T09:57:31.417Z,22.67
2019-03-30T09:58:31.426Z,22.65
2019-03-30T09:59:31.428Z,22.71
2019-03-30T10:00:31.443Z,22.71
2019-03-30T10:01:31.440Z,22.65
2019-03-30T10:02:31.447Z,22.69
2019-03-30T10:03:31.456Z,22.69
2019-03-30T10:04:31.458Z,22.68
2019-03-30T10:05:31.465Z,22.67
2019-03-30T10:06:34.652Z,22.69
2019-03-30T10:07:31.478Z,22.65
2019-03-30T10:08:31.482Z,22.69
2019-03-30T10:09:31.490Z,22.64
2019-03-30T10:10:31.496Z,22.68
2019-03-30T10:11:31.500Z,22.69
2019-03-30T10:12:31.507Z,22.69
2019-03-30T10:13:31.518Z,22.71
2019-03-30T10:14:31.517Z,22.74
2019-03-30T10:15:31.526Z,22.68
2019-03-30T10:16:31.529Z,22.71
2019-03-30T10:17:31.538Z,22.68
2019-03-30T10:18:31.543Z,22.65
2019-03-30T10:19:31.548Z,22.68
2019-03-30T10:20:31.552Z,22.72
2019-03-30T10:21:31.565Z,22.69
2019-03-30T10:22:31.566Z,22.72
2019-03-30T10:23:31.575Z,22.68
2019-03-30T10:24:37.858Z,22.65
2019-03-30T10:25:31.584Z,22.71
2019-03-30T10:26:31.594Z,22.65
2019-03-30T10:27:31.597Z,22.75
2019-03-30T10:28:31.600Z,22.69
2019-03-30T10:29:31.606Z,22.68
2019-03-30T10:30:31.613Z,22.64
2019-03-30T10:31:31.624Z,22.71
2019-03-30T10:32:31.627Z,22.72
2019-03-30T10:33:31.631Z,22.65
2019-03-30T10:34:31.636Z,22.69
2019-03-30T10:35:31.647Z,22.69
2019-03-30T10:36:31.649Z,22.69
2019-03-30T10:37:31.655Z,22.69
2019-03-30T10:38:31.661Z,22.74
2019-03-30T10:39:31.668Z,22.74
2019-03-30T10:40:31.673Z,22.71
2019-03-30T10:41:31.678Z,22.69
2019-03-30T10:42:31.690Z,22.65
2019-03-30T10:43:31.693Z,22.71
2019-03-30T10:44:31.697Z,22.72
2019-03-30T10:45:31.714Z,22.72
2019-03-30T10:46:31.819Z,22.69
2019-03-30T10:47:31.714Z,22.71
2019-03-30T10:48:31.721Z,22.68
2019-03-30T10:49:31.725Z,22.72
2019-03-30T10:50:31.733Z,22.69
2019-03-30T10:51:31.738Z,22.60
2019-03-30T10:52:31.746Z,22.68
2019-03-30T10:53:31.750Z,22.65
2019-03-30T10:54:31.757Z,22.69
2019-03-30T10:55:31.768Z,22.71
2019-03-30T10:56:31.774Z,22.59
2019-03-30T10:57:31.776Z,22.67
2019-03-30T10:58:31.780Z,22.60
2019-03-30T10:59:31.786Z,22.68
2019-03-30T11:00:31.792Z,22.60
2019-03-30T11:01:31.798Z,22.64
2019-03-30T11:02:31.803Z,22.64
2019-03-30T11:03:31.811Z,22.65
2019-03-30T11:04:31.817Z,22.59
2019-03-30T11:05:31.822Z,22.59
2019-03-30T11:06:31.830Z,22.62
2019-03-30T11:07:31.834Z,22.60
2019-03-30T11:08:31.840Z,22.65
2019-03-30T11:09:31.846Z,22.56
2019-03-30T11:10:31.859Z,22.65
2019-03-30T11:11:31.859Z,22.64
2019-03-30T11:12:31.862Z,22.62
2019-03-30T11:13:31.870Z,22.64
2019-03-30T11:14:31.876Z,22.68
2019-03-30T11:15:34.108Z,22.62
2019-03-30T11:16:31.887Z,22.56
2019-03-30T11:17:31.893Z,22.60
2019-03-30T11:18:31.899Z,22.62
2019-03-30T11:19:31.907Z,22.65
2019-03-30T11:20:31.911Z,22.65
2019-03-30T11:21:31.918Z,22.59
2019-03-30T11:22:31.925Z,22.60
2019-03-30T11:23:31.929Z,22.67
2019-03-30T11:24:31.965Z,22.53
2019-03-30T11:25:31.943Z,22.60
2019-03-30T11:26:31.946Z,22.64
2019-03-30T11:27:31.956Z,22.59
2019-03-30T11:28:31.966Z,22.60
2019-03-30T11:29:31.966Z,22.64
2019-03-30T11:30:31.973Z,22.56
2019-03-30T11:31:31.978Z,22.54
2019-03-30T11:32:31.983Z,22.64
2019-03-30T11:33:31.989Z,22.65
2019-03-30T11:34:31.998Z,22.62
2019-03-30T11:35:32.002Z,22.62
2019-03-30T11:36:32.010Z,22.67
2019-03-30T11:37:32.011Z,22.64
2019-03-30T11:38:32.018Z,22.56
2019-03-30T11:39:32.024Z,22.60
2019-03-30T11:40:32.030Z,22.60
2019-03-30T11:41:32.038Z,22.62
2019-03-30T11:42:32.043Z,22.60
2019-03-30T11:43:32.049Z,22.65
2019-03-30T11:44:32.053Z,22.59
2019-03-30T11:45:32.060Z,22.62
2019-03-30T11:46:32.066Z,22.60
2019-03-30T11:47:32.072Z,22.64
2019-03-30T11:48:32.155Z,22.67
2019-03-30T11:49:32.083Z,22.71
2019-03-30T11:50:32.097Z,22.60
2019-03-30T11:51:32.156Z,22.64
2019-03-30T11:52:32.101Z,22.57
2019-03-30T11:53:32.108Z,22.67
2019-03-30T11:54:32.114Z,22.57
2019-03-30T11:55:32.120Z,22.67
2019-03-30T11:56:32.124Z,22.69
2019-03-30T11:57:32.132Z,22.72
2019-03-30T11:58:32.149Z,22.71
2019-03-30T11:59:32.144Z,22.69
2019-03-30T12:00:32.150Z,22.65
2019-03-30T12:01:32.160Z,22.65
2019-03-30T12:02:32.161Z,22.69
2019-03-30T12:03:32.169Z,22.67
2019-03-30T12:04:32.172Z,22.60
2019-03-30T12:05:32.179Z,22.65
2019-03-30T12:06:32.187Z,22.68
2019-03-30T12:07:32.305Z,22.67
2019-03-30T12:08:32.197Z,22.64
2019-03-30T12:09:32.204Z,22.68
2019-03-30T12:10:32.209Z,22.74
2019-03-30T12:11:32.216Z,22.71
2019-03-30T12:12:32.222Z,22.69
2019-03-30T12:13:32.228Z,22.67
2019-03-30T12:14:32.233Z,22.71
2019-03-30T12:15:32.240Z,22.67
2019-03-30T12:16:32.244Z,22.72
2019-03-30T12:17:32.252Z,22.68
2019-03-30T12:18:32.257Z,22.72
2019-03-30T12:19:32.263Z,22.74
2019-03-30T12:20:32.269Z,22.64
2019-03-30T12:21:32.273Z,22.67
2019-03-30T12:22:32.281Z,22.69
2019-03-30T12:23:32.286Z,22.69
2019-03-30T12:24:32.294Z,22.65
2019-03-30T12:25:35.739Z,22.68
2019-03-30T12:26:32.304Z,22.65
2019-03-30T12:27:32.312Z,22.71
2019-03-30T12:28:32.316Z,22.71
2019-03-30T12:29:32.342Z,22.65
2019-03-30T12:30:32.381Z,22.71
2019-03-30T12:31:32.337Z,22.65
2019-03-30T12:32:32.347Z,22.60
2019-03-30T12:33:32.348Z,22.67
2019-03-30T12:34:32.353Z,22.59
2019-03-30T12:35:32.360Z,22.54
2019-03-30T12:36:32.364Z,22.64
2019-03-30T12:37:32.372Z,22.52
2019-03-30T12:38:32.377Z,22.62
2019-03-30T12:39:32.383Z,22.71
2019-03-30T12:40:32.389Z,22.83
2019-03-30T12:41:32.394Z,22.87
2019-03-30T12:42:32.400Z,22.92
2019-03-30T12:43:32.407Z,22.83
2019-03-30T12:44:32.416Z,22.89
2019-03-30T12:45:32.423Z,22.93
2019-03-30T12:46:32.425Z,22.94
2019-03-30T12:47:32.431Z,22.93
2019-03-30T12:48:32.436Z,22.97
2019-03-30T12:49:32.441Z,22.93
2019-03-30T12:50:32.450Z,22.87
2019-03-30T12:51:32.456Z,22.94
2019-03-30T12:52:32.468Z,22.86